Time;durP1;ratioP1;P1;durP2;ratioP2;P2;SDS_P1;SDS_P2;PMS_P1;PMS_P2;Temp;Humidity;BMP_temperature;BMP_pressure;BME280_temperature;BME280_humidity;BME280_pressure;Samples;Min_cycle;Max_cycle;Signal;HPM_P1;HPM_P2
2022/12/08 00:01:42;;;;;;;2.53;1.25;;;;;;;;;;5093637;28;20020;-43
2022/12/08 00:04:08;;;;;;;1.48;1.23;;;;;;;;;;5094061;28;20024;-43
2022/12/08 00:09:26;;;;;;;2.03;1.52;;;;;;;;;;5092054;28;20038;-43
2022/12/08 00:11:53;;;;;;;2.13;1.50;;;;;;;;;;5093570;28;20673;-43
2022/12/08 00:14:20;;;;;;;1.80;1.40;;;;;;;;;;5093590;28;20043;-43
2022/12/08 00:16:46;;;;;;;1.23;1.13;;;;;;;;;;5091678;28;20060;-43
2022/12/08 00:19:12;;;;;;;1.42;1.13;;;;;;;;;;5087678;28;20508;-43
2022/12/08 00:21:38;;;;;;;1.85;1.38;;;;;;;;;;5092943;28;20393;-44
2022/12/08 00:24:04;;;;;;;1.60;1.10;;;;;;;;;;5091521;28;20027;-46
2022/12/08 00:26:30;;;;;;;1.73;1.52;;;;;;;;;;5092850;28;20028;-43
2022/12/08 00:28:56;;;;;;;1.48;1.30;;;;;;;;;;5093821;28;20024;-43
2022/12/08 00:31:22;;;;;;;1.80;1.50;;;;;;;;;;5092451;28;20120;-43
2022/12/08 00:33:48;;;;;;;1.85;1.55;;;;;;;;;;5093873;28;20028;-43
2022/12/08 00:36:14;;;;;;;3.13;2.00;;;;;;;;;;5092378;28;20028;-43
2022/12/08 00:38:41;;;;;;;1.95;1.40;;;;;;;;;;5094128;28;20032;-43
2022/12/08 00:41:11;;;;;;;1.88;1.52;;;;;;;;;;5082542;28;20461;-43
2022/12/08 00:43:37;;;;;;;1.67;1.20;;;;;;;;;;5093865;28;20036;-43
2022/12/08 00:46:03;;;;;;;1.45;1.23;;;;;;;;;;5091819;28;20039;-45
2022/12/08 00:48:29;;;;;;;1.95;1.23;;;;;;;;;;5090654;28;20395;-44
2022/12/08 00:50:55;;;;;;;2.17;1.67;;;;;;;;;;5093628;28;20168;-43
2022/12/08 00:53:21;;;;;;;2.05;1.60;;;;;;;;;;5091527;28;20062;-44
2022/12/08 00:55:47;;;;;;;2.22;1.33;;;;;;;;;;5092636;28;20038;-45
2022/12/08 00:58:13;;;;;;;2.03;1.52;;;;;;;;;;5087863;28;20482;-44
2022/12/08 01:00:43;;;;;;;1.42;1.23;;;;;;;;;;5093387;28;20025;-43
2022/12/08 01:03:09;;;;;;;1.98;1.38;;;;;;;;;;5092321;28;20051;-44
2022/12/08 01:05:35;;;;;;;3.25;1.42;;;;;;;;;;5092966;28;20107;-44
2022/12/08 01:08:01;;;;;;;3.45;1.35;;;;;;;;;;5092603;28;20104;-45
2022/12/08 01:10:27;;;;;;;1.77;1.40;;;;;;;;;;5092607;28;20024;-43
2022/12/08 01:12:53;;;;;;;1.45;1.15;;;;;;;;;;5092020;28;20099;-43
2022/12/08 01:15:19;;;;;;;1.58;1.15;;;;;;;;;;5092452;28;20037;-44
2022/12/08 01:17:45;;;;;;;3.05;1.30;;;;;;;;;;5092751;28;20040;-43
2022/12/08 01:20:11;;;;;;;2.28;1.50;;;;;;;;;;5092097;28;20024;-44
2022/12/08 01:22:37;;;;;;;2.95;2.17;;;;;;;;;;5092216;28;20089;-43
2022/12/08 01:25:04;;;;;;;1.63;1.27;;;;;;;;;;5092286;28;20020;-46
2022/12/08 01:27:30;;;;;;;1.50;1.02;;;;;;;;;;5092808;28;20078;-44
2022/12/08 01:29:55;;;;;;;2.13;1.35;;;;;;;;;;5092843;28;20044;-43
2022/12/08 01:32:21;;;;;;;1.85;1.25;;;;;;;;;;5082593;28;20089;-43
2022/12/08 01:34:47;;;;;;;1.52;1.20;;;;;;;;;;5089411;28;20039;-45
2022/12/08 01:37:13;;;;;;;1.67;1.20;;;;;;;;;;5091861;28;20102;-44
2022/12/08 01:39:40;;;;;;;1.33;1.23;;;;;;;;;;5092547;28;20445;-43
2022/12/08 01:42:06;;;;;;;2.00;1.42;;;;;;;;;;5091593;28;20142;-43
2022/12/08 01:44:32;;;;;;;1.67;1.42;;;;;;;;;;5091931;28;20020;-44
2022/12/08 01:46:58;;;;;;;1.50;1.27;;;;;;;;;;5092108;28;20031;-44
2022/12/08 01:49:31;;;;;;;1.75;1.50;;;;;;;;;;5091328;28;20020;-44
2022/12/08 01:52:00;;;;;;;1.70;1.33;;;;;;;;;;5091942;28;20509;-44
2022/12/08 01:54:28;;;;;;;1.83;1.38;;;;;;;;;;5091288;28;20551;-44
2022/12/08 01:57:07;;;;;;;1.63;1.35;;;;;;;;;;5092775;28;20028;-43
2022/12/08 01:59:35;;;;;;;1.70;1.23;;;;;;;;;;5092328;28;20036;-44
2022/12/08 02:02:02;;;;;;;1.90;1.55;;;;;;;;;;5085790;28;20024;-46
2022/12/08 02:04:28;;;;;;;2.45;1.55;;;;;;;;;;5082247;28;20036;-44
2022/12/08 02:06:54;;;;;;;1.95;1.50;;;;;;;;;;5091962;28;20081;-44
2022/12/08 02:09:21;;;;;;;1.58;1.40;;;;;;;;;;5092311;28;20074;-44
2022/12/08 02:11:47;;;;;;;2.15;1.30;;;;;;;;;;5089818;28;20081;-43
2022/12/08 02:14:14;;;;;;;1.83;1.15;;;;;;;;;;5091064;28;20032;-44
2022/12/08 02:17:00;;;;;;;1.33;1.20;;;;;;;;;;5091563;28;20465;-44
2022/12/08 02:19:32;;;;;;;2.15;1.30;;;;;;;;;;5086124;28;20047;-44
2022/12/08 02:22:15;;;;;;;2.00;1.75;;;;;;;;;;5081648;28;20582;-44
2022/12/08 02:25:09;;;;;;;2.17;1.35;;;;;;;;;;5088635;28;20020;-43
2022/12/08 02:27:41;;;;;;;1.77;1.33;;;;;;;;;;5091596;28;20028;-44
2022/12/08 02:30:07;;;;;;;1.67;1.35;;;;;;;;;;5091071;28;20037;-44
2022/12/08 02:32:48;;;;;;;1.60;1.38;;;;;;;;;;5091204;28;20443;-43
2022/12/08 02:35:18;;;;;;;1.63;1.33;;;;;;;;;;5091269;28;20381;-44
2022/12/08 02:38:10;;;;;;;1.20;1.00;;;;;;;;;;5082765;28;20049;-44
2022/12/08 02:40:36;;;;;;;;;;;;;;;;;;5061135;28;20504;-44
2022/12/08 02:43:06;;;;;;;1.63;1.08;;;;;;;;;;5090239;28;19908;-45
2022/12/08 02:46:01;;;;;;;1.70;1.30;;;;;;;;;;5090756;28;20500;-44
2022/12/08 02:48:30;;;;;;;1.17;0.90;;;;;;;;;;5069999;28;20485;-44
2022/12/08 02:50:56;;;;;;;1.42;1.20;;;;;;;;;;5091278;28;20465;-43
2022/12/08 02:53:22;;;;;;;1.08;0.98;;;;;;;;;;5089768;28;20024;-44
2022/12/08 02:56:06;;;;;;;1.50;1.27;;;;;;;;;;5090668;28;20028;-44
2022/12/08 02:58:35;;;;;;;1.88;1.30;;;;;;;;;;5088993;28;20039;-43
2022/12/08 03:01:11;;;;;;;1.55;1.30;;;;;;;;;;5091613;28;20104;-45
2022/12/08 03:03:37;;;;;;;1.83;1.25;;;;;;;;;;5087909;28;20388;-44
2022/12/08 03:06:10;;;;;;;1.85;1.30;;;;;;;;;;5090481;28;20103;-45
2022/12/08 03:08:41;;;;;;;1.45;1.08;;;;;;;;;;5091075;28;20055;-44
2022/12/08 03:11:13;;;;;;;1.38;1.08;;;;;;;;;;5089178;28;20074;-44
2022/12/08 03:13:41;;;;;;;1.58;1.17;;;;;;;;;;5091210;28;20107;-44
2022/12/08 03:16:08;;;;;;;2.08;1.23;;;;;;;;;;5090002;28;20081;-44
2022/12/08 03:18:37;;;;;;;1.80;1.13;;;;;;;;;;5091343;28;20055;-44
2022/12/08 03:21:03;;;;;;;1.33;1.10;;;;;;;;;;5090220;28;20024;-45
2022/12/08 03:23:30;;;;;;;1.48;1.13;;;;;;;;;;5089840;28;20043;-44
2022/12/08 03:26:03;;;;;;;2.03;1.30;;;;;;;;;;5090550;28;20051;-44
2022/12/08 03:28:29;;;;;;;1.65;1.30;;;;;;;;;;5090701;28;20032;-44
2022/12/08 03:30:57;;;;;;;1.55;1.00;;;;;;;;;;5084562;28;20028;-44
2022/12/08 03:33:30;;;;;;;1.55;1.23;;;;;;;;;;5089533;28;20088;-44
2022/12/08 03:35:56;;;;;;;2.25;1.35;;;;;;;;;;5090474;28;20044;-43
2022/12/08 03:38:22;;;;;;;1.52;1.15;;;;;;;;;;5092234;28;20024;-44
2022/12/08 03:41:17;;;;;;;1.23;1.13;;;;;;;;;;5089848;28;20419;-44
2022/12/08 03:43:34;;;;;;;1.02;0.75;;;;;;;;;;5090286;28;20035;-44
2022/12/08 03:46:00;;;;;;;1.80;1.33;;;;;;;;;;5090220;28;20039;-44
2022/12/08 03:48:26;;;;;;;1.25;1.05;;;;;;;;;;5090002;28;20060;-43
2022/12/08 03:50:52;;;;;;;2.17;1.10;;;;;;;;;;5090958;28;20480;-44
2022/12/08 03:53:18;;;;;;;2.20;1.45;;;;;;;;;;5080969;28;21026;-45
2022/12/08 03:55:44;;;;;;;1.48;1.15;;;;;;;;;;5052697;28;20051;-44
2022/12/08 03:58:10;;;;;;;1.55;1.10;;;;;;;;;;5049569;28;20045;-44
2022/12/08 04:00:36;;;;;;;1.35;0.98;;;;;;;;;;5050376;28;20036;-44
2022/12/08 04:03:03;;;;;;;1.35;1.05;;;;;;;;;;5049650;28;20139;-46
2022/12/08 04:05:29;;;;;;;1.50;1.10;;;;;;;;;;5050311;28;20025;-44
2022/12/08 04:07:58;;;;;;;1.45;1.20;;;;;;;;;;5050614;28;20036;-44
2022/12/08 04:10:24;;;;;;;1.83;1.10;;;;;;;;;;5039727;28;20036;-44
2022/12/08 04:12:50;;;;;;;1.42;1.17;;;;;;;;;;5049675;28;20033;-44
2022/12/08 04:15:16;;;;;;;2.05;1.65;;;;;;;;;;5050018;28;20036;-45
2022/12/08 04:17:42;;;;;;;1.55;1.20;;;;;;;;;;5049813;28;20083;-44
2022/12/08 04:20:08;;;;;;;1.67;1.20;;;;;;;;;;5048804;28;20021;-44
2022/12/08 04:22:34;;;;;;;1.60;1.00;;;;;;;;;;5052696;28;20512;-43
2022/12/08 04:25:00;;;;;;;1.40;1.05;;;;;;;;;;5047045;28;20068;-46
2022/12/08 04:27:26;;;;;;;2.03;1.27;;;;;;;;;;5043334;28;20032;-43
2022/12/08 04:29:52;;;;;;;1.30;1.10;;;;;;;;;;5054408;28;20359;-44
2022/12/08 04:32:18;;;;;;;1.27;1.08;;;;;;;;;;5050159;28;20033;-44
2022/12/08 04:34:44;;;;;;;1.58;1.20;;;;;;;;;;5054004;28;20021;-43
2022/12/08 04:37:10;;;;;;;1.40;1.20;;;;;;;;;;5052423;28;20037;-44
2022/12/08 04:39:36;;;;;;;1.05;0.95;;;;;;;;;;5053592;28;20486;-43
2022/12/08 04:42:02;;;;;;;1.25;1.05;;;;;;;;;;5052449;28;20099;-46
2022/12/08 04:44:28;;;;;;;1.73;1.30;;;;;;;;;;5049108;28;20082;-44
2022/12/08 04:46:54;;;;;;;1.23;1.13;;;;;;;;;;5053156;28;20021;-44
2022/12/08 04:49:20;;;;;;;2.00;1.30;;;;;;;;;;5052573;28;20478;-44
2022/12/08 04:51:46;;;;;;;1.77;1.23;;;;;;;;;;5052506;28;20021;-45
2022/12/08 04:54:12;;;;;;;1.38;1.27;;;;;;;;;;5068776;28;20048;-44
2022/12/08 04:56:38;;;;;;;1.77;1.50;;;;;;;;;;5093474;28;20084;-44
2022/12/08 04:59:04;;;;;;;1.65;1.10;;;;;;;;;;5092284;28;20036;-46
2022/12/08 05:01:30;;;;;;;0.98;0.88;;;;;;;;;;5092507;28;20070;-44
2022/12/08 05:03:56;;;;;;;1.60;1.23;;;;;;;;;;5093160;28;20046;-44
2022/12/08 05:06:23;;;;;;;1.20;1.00;;;;;;;;;;5085242;28;20598;-44
2022/12/08 05:08:49;;;;;;;2.15;1.20;;;;;;;;;;5093866;28;20024;-43
2022/12/08 05:11:15;;;;;;;1.58;1.17;;;;;;;;;;5091596;28;20085;-43
2022/12/08 05:13:41;;;;;;;1.48;1.20;;;;;;;;;;5093154;28;20032;-43
2022/12/08 05:16:11;;;;;;;1.50;1.10;;;;;;;;;;5092133;28;20373;-45
2022/12/08 05:18:38;;;;;;;1.40;1.27;;;;;;;;;;5093283;28;20115;-44
2022/12/08 05:21:04;;;;;;;1.10;1.00;;;;;;;;;;5092978;28;20024;-46
2022/12/08 05:23:30;;;;;;;1.30;1.00;;;;;;;;;;5092823;28;20032;-43
2022/12/08 05:25:56;;;;;;;1.88;1.20;;;;;;;;;;5094465;28;20031;-44
2022/12/08 05:28:22;;;;;;;1.98;1.17;;;;;;;;;;5091827;28;20039;-45
2022/12/08 05:30:48;;;;;;;1.85;1.00;;;;;;;;;;5093514;28;20101;-44
2022/12/08 05:33:14;;;;;;;1.33;0.98;;;;;;;;;;5092052;28;20468;-44
2022/12/08 05:35:40;;;;;;;1.40;1.02;;;;;;;;;;5091154;28;20132;-46
2022/12/08 05:38:06;;;;;;;1.27;1.10;;;;;;;;;;5091832;28;20477;-44
2022/12/08 05:40:32;;;;;;;1.67;1.52;;;;;;;;;;5093390;28;20426;-44
2022/12/08 05:42:58;;;;;;;1.77;1.30;;;;;;;;;;5082765;28;20024;-44
2022/12/08 05:45:24;;;;;;;1.42;1.10;;;;;;;;;;5091417;28;20560;-44
2022/12/08 05:47:52;;;;;;;2.92;1.60;;;;;;;;;;5085242;28;20055;-44
2022/12/08 05:50:18;;;;;;;1.38;1.17;;;;;;;;;;5092219;28;20028;-44
2022/12/08 05:52:44;;;;;;;2.22;1.73;;;;;;;;;;5092340;28;20035;-44
2022/12/08 05:55:10;;;;;;;1.48;1.38;;;;;;;;;;5091572;28;20084;-45
2022/12/08 05:57:36;;;;;;;2.40;1.15;;;;;;;;;;5094039;28;20534;-44
2022/12/08 06:00:02;;;;;;;1.40;1.10;;;;;;;;;;5083327;28;20084;-46
2022/12/08 06:02:28;;;;;;;4.05;1.20;;;;;;;;;;5091616;28;20092;-44
2022/12/08 06:04:54;;;;;;;1.60;1.05;;;;;;;;;;5093172;28;20506;-44
2022/12/08 06:07:20;;;;;;;1.40;0.90;;;;;;;;;;5091683;28;20385;-44
2022/12/08 06:09:46;;;;;;;1.65;1.05;;;;;;;;;;5092054;28;20099;-44
2022/12/08 06:12:12;;;;;;;3.17;1.13;;;;;;;;;;5091316;28;20024;-44
2022/12/08 06:14:38;;;;;;;1.58;1.23;;;;;;;;;;5092837;28;20095;-44
2022/12/08 06:17:04;;;;;;;2.08;1.30;;;;;;;;;;5080015;28;20039;-46
2022/12/08 06:19:30;;;;;;;1.52;1.20;;;;;;;;;;5090731;28;20358;-45
2022/12/08 06:21:56;;;;;;;1.33;1.00;;;;;;;;;;5085112;28;20484;-43
2022/12/08 06:24:22;;;;;;;1.30;1.05;;;;;;;;;;5090846;28;20077;-44
2022/12/08 06:26:48;;;;;;;1.65;1.08;;;;;;;;;;5091620;28;20050;-44
2022/12/08 06:29:14;;;;;;;2.10;1.08;;;;;;;;;;5090908;28;20024;-44
2022/12/08 06:31:40;;;;;;;1.88;0.90;;;;;;;;;;5091164;28;20032;-44
2022/12/08 06:34:06;;;;;;;0.93;0.80;;;;;;;;;;5088873;28;20058;-44
2022/12/08 06:36:33;;;;;;;1.52;1.27;;;;;;;;;;5091207;28;20380;-44
2022/12/08 06:38:59;;;;;;;2.53;1.40;;;;;;;;;;5091801;28;20032;-44
2022/12/08 06:41:25;;;;;;;1.30;1.17;;;;;;;;;;5090586;28;20141;-44
2022/12/08 06:43:51;;;;;;;1.33;1.23;;;;;;;;;;5091392;28;20475;-44
2022/12/08 06:46:18;;;;;;;2.63;1.73;;;;;;;;;;5088593;28;20068;-44
2022/12/08 06:48:44;;;;;;;1.48;1.25;;;;;;;;;;5090071;28;20067;-43
2022/12/08 06:51:15;;;;;;;1.75;1.05;;;;;;;;;;5090444;28;20024;-44
2022/12/08 06:53:41;;;;;;;3.03;1.23;;;;;;;;;;5088530;28;20051;-44
2022/12/08 06:56:07;;;;;;;1.70;1.10;;;;;;;;;;5089873;28;20036;-45
2022/12/08 06:58:34;;;;;;;1.75;1.20;;;;;;;;;;5097480;28;20095;-44
2022/12/08 07:01:07;;;;;;;1.77;1.20;;;;;;;;;;5091142;28;20115;-44
2022/12/08 07:03:33;;;;;;;1.88;1.17;;;;;;;;;;5091205;28;20024;-44
2022/12/08 07:05:59;;;;;;;2.28;1.00;;;;;;;;;;5091144;28;20050;-44
2022/12/08 07:08:25;;;;;;;1.17;0.93;;;;;;;;;;5089119;28;20069;-44
2022/12/08 07:10:51;;;;;;;3.67;1.45;;;;;;;;;;5087241;28;20136;-45
2022/12/08 07:13:17;;;;;;;2.42;1.38;;;;;;;;;;5074381;28;20774;-44
2022/12/08 07:15:43;;;;;;;0.90;0.80;;;;;;;;;;5088331;28;20043;-44
2022/12/08 07:18:09;;;;;;;1.67;1.02;;;;;;;;;;5074987;28;20040;-45
2022/12/08 07:20:35;;;;;;;1.92;1.30;;;;;;;;;;5090022;28;20114;-45
2022/12/08 07:23:01;;;;;;;1.85;1.10;;;;;;;;;;5084364;28;20072;-47
2022/12/08 07:25:27;;;;;;;4.75;1.80;;;;;;;;;;5083565;28;20028;-46
2022/12/08 07:27:53;;;;;;;3.45;1.98;;;;;;;;;;5086457;28;20389;-44
2022/12/08 07:30:19;;;;;;;2.38;1.73;;;;;;;;;;5094115;28;20028;-45
2022/12/08 07:32:45;;;;;;;2.70;1.80;;;;;;;;;;5087937;28;20044;-46
2022/12/08 07:35:11;;;;;;;2.28;1.40;;;;;;;;;;5074142;28;20032;-40
2022/12/08 07:37:37;;;;;;;3.40;1.30;;;;;;;;;;5083994;28;20019;-39
2022/12/08 07:40:04;;;;;;;2.05;1.42;;;;;;;;;;5086649;28;20141;-41
2022/12/08 07:42:30;;;;;;;2.15;1.30;;;;;;;;;;5093739;28;20032;-43
2022/12/08 07:44:56;;;;;;;2.08;1.33;;;;;;;;;;5091095;28;20039;-43
2022/12/08 07:47:22;;;;;;;1.75;1.20;;;;;;;;;;5083266;28;20024;-42
2022/12/08 07:49:48;;;;;;;5.57;1.15;;;;;;;;;;5091744;28;20886;-45
2022/12/08 07:52:14;;;;;;;4.85;1.85;;;;;;;;;;5077429;28;20112;-45
2022/12/08 07:54:40;;;;;;;2.13;1.25;;;;;;;;;;5086062;28;20068;-45
2022/12/08 07:57:07;;;;;;;1.73;1.00;;;;;;;;;;5089331;28;20516;-47
2022/12/08 07:59:33;;;;;;;3.25;1.35;;;;;;;;;;5087947;28;20119;-45
2022/12/08 08:01:59;;;;;;;2.03;1.10;;;;;;;;;;5084173;28;20524;-45
2022/12/08 08:04:25;;;;;;;5.72;1.65;;;;;;;;;;5091906;28;20040;-45
2022/12/08 08:06:51;;;;;;;1.40;1.13;;;;;;;;;;5085211;28;20032;-47
2022/12/08 08:09:17;;;;;;;3.83;1.00;;;;;;;;;;5094539;28;20093;-45
2022/12/08 08:11:43;;;;;;;1.60;1.17;;;;;;;;;;5097073;28;20385;-46
2022/12/08 08:14:09;;;;;;;1.55;0.93;;;;;;;;;;5091087;28;20044;-45
2022/12/08 08:16:35;;;;;;;2.75;1.13;;;;;;;;;;5091246;28;20040;-44
2022/12/08 08:19:01;;;;;;;2.75;1.40;;;;;;;;;;5093753;28;20434;-46
2022/12/08 08:21:27;;;;;;;1.45;1.10;;;;;;;;;;5091652;28;20063;-45
2022/12/08 08:23:53;;;;;;;1.90;1.00;;;;;;;;;;5092842;28;20032;-45
2022/12/08 08:26:19;;;;;;;1.65;0.85;;;;;;;;;;5089618;28;20028;-45
2022/12/08 08:28:46;;;;;;;2.63;1.20;;;;;;;;;;5085552;28;20111;-43
2022/12/08 08:31:12;;;;;;;2.00;0.90;;;;;;;;;;5082680;28;20035;-45
2022/12/08 08:33:38;;;;;;;1.20;0.80;;;;;;;;;;5084135;28;20032;-45
2022/12/08 08:36:08;;;;;;;1.20;0.95;;;;;;;;;;5089214;28;20040;-47
2022/12/08 08:38:38;;;;;;;1.80;1.17;;;;;;;;;;5078352;28;20111;-45
2022/12/08 08:41:08;;;;;;;1.67;0.90;;;;;;;;;;5098675;28;20024;-48
2022/12/08 08:43:35;;;;;;;0.80;0.80;;;;;;;;;;5086292;28;23118;-44
2022/12/08 08:46:01;;;;;;;1.50;1.13;;;;;;;;;;5089616;28;20058;-45
2022/12/08 08:48:28;;;;;;;1.88;1.05;;;;;;;;;;5090381;28;20048;-45
2022/12/08 08:50:55;;;;;;;1.02;0.93;;;;;;;;;;5087121;28;20183;-44
2022/12/08 08:53:21;;;;;;;1.20;1.10;;;;;;;;;;5085606;28;20085;-44
2022/12/08 08:55:47;;;;;;;1.55;0.90;;;;;;;;;;5097970;28;20036;-45
2022/12/08 08:58:13;;;;;;;2.35;0.90;;;;;;;;;;5085884;28;20229;-45
2022/12/08 09:00:39;;;;;;;1.00;0.73;;;;;;;;;;5092506;28;20131;-44
2022/12/08 09:03:05;;;;;;;4.07;1.23;;;;;;;;;;5087835;28;20028;-47
2022/12/08 09:05:31;;;;;;;2.35;1.33;;;;;;;;;;5089684;28;20110;-45
2022/12/08 09:07:57;;;;;;;2.85;1.05;;;;;;;;;;5083404;28;20169;-44
2022/12/08 09:10:23;;;;;;;1.27;0.98;;;;;;;;;;5094744;28;20039;-44
2022/12/08 09:12:49;;;;;;;1.60;1.17;;;;;;;;;;5082200;28;20017;-43
2022/12/08 09:15:16;;;;;;;4.35;1.30;;;;;;;;;;5087525;28;20046;-45
2022/12/08 09:17:42;;;;;;;1.60;0.80;;;;;;;;;;5087578;28;20070;-45
2022/12/08 09:20:08;;;;;;;1.45;1.00;;;;;;;;;;5094684;28;20040;-44
2022/12/08 09:22:34;;;;;;;1.77;1.00;;;;;;;;;;5077357;28;20023;-42
2022/12/08 09:25:00;;;;;;;1.60;1.00;;;;;;;;;;5086220;28;20024;-45
2022/12/08 09:27:26;;;;;;;1.70;1.20;;;;;;;;;;5086447;28;20160;-45
2022/12/08 09:29:52;;;;;;;1.92;1.15;;;;;;;;;;5091664;28;20119;-44
2022/12/08 09:32:18;;;;;;;2.47;1.08;;;;;;;;;;5092038;28;20112;-45
2022/12/08 09:34:44;;;;;;;2.55;1.52;;;;;;;;;;5089077;28;20049;-44
2022/12/08 09:37:10;;;;;;;1.50;1.13;;;;;;;;;;5079732;28;20062;-45
2022/12/08 09:39:36;;;;;;;2.13;1.20;;;;;;;;;;5087014;28;20046;-45
2022/12/08 09:42:03;;;;;;;1.83;1.05;;;;;;;;;;5092924;28;20099;-46
2022/12/08 09:44:48;;;;;;;2.28;1.38;;;;;;;;;;5088143;28;20127;-44
2022/12/08 09:47:25;;;;;;;1.15;1.00;;;;;;;;;;5085982;28;20025;-46
2022/12/08 09:49:54;;;;;;;2.05;1.30;;;;;;;;;;5096577;28;20044;-45
2022/12/08 09:52:26;;;;;;;2.20;1.45;;;;;;;;;;5081889;28;20032;-46
2022/12/08 09:54:52;;;;;;;2.75;1.33;;;;;;;;;;5074719;28;20045;-44
2022/12/08 09:57:21;;;;;;;1.80;1.35;;;;;;;;;;5065401;28;20597;-45
2022/12/08 09:59:59;;;;;;;2.50;1.25;;;;;;;;;;5066779;28;20045;-45
2022/12/08 10:02:27;;;;;;;1.85;1.33;;;;;;;;;;5068095;28;20056;-44
2022/12/08 10:04:54;;;;;;;1.70;1.20;;;;;;;;;;5070124;28;20036;-44
2022/12/08 10:07:29;;;;;;;2.80;1.25;;;;;;;;;;5062103;28;20021;-44
2022/12/08 10:10:01;;;;;;;3.25;1.13;;;;;;;;;;5074233;28;20116;-44
2022/12/08 10:12:31;;;;;;;2.42;1.50;;;;;;;;;;5062124;28;20032;-43
2022/12/08 10:14:57;;;;;;;2.05;1.45;;;;;;;;;;5067234;28;20047;-44
2022/12/08 10:17:34;;;;;;;2.85;1.55;;;;;;;;;;5063381;28;20119;-44
2022/12/08 10:20:02;;;;;;;1.65;1.20;;;;;;;;;;5067775;28;20385;-44
2022/12/08 10:22:33;;;;;;;2.60;1.38;;;;;;;;;;5064108;28;20024;-42
2022/12/08 10:24:59;;;;;;;3.20;1.73;;;;;;;;;;5066055;28;20043;-45
2022/12/08 10:27:25;;;;;;;2.17;1.23;;;;;;;;;;5062592;28;20086;-45
2022/12/08 10:29:51;;;;;;;1.40;1.27;;;;;;;;;;5068744;28;20721;-45
2022/12/08 10:32:19;;;;;;;2.03;1.50;;;;;;;;;;5063010;28;20021;-45
2022/12/08 10:34:59;;;;;;;2.08;1.38;;;;;;;;;;5069602;28;20147;-46
2022/12/08 10:37:24;;;;;;;1.20;1.00;;;;;;;;;;5069221;28;20599;-45
2022/12/08 10:39:59;;;;;;;2.17;1.20;;;;;;;;;;5065278;28;20029;-45
2022/12/08 10:42:31;;;;;;;5.68;2.22;;;;;;;;;;5066421;28;20017;-46
2022/12/08 10:44:57;;;;;;;;;;;;;;;;;;5066245;28;20115;-45
2022/12/08 10:47:24;;;;;;;6.10;1.77;;;;;;;;;;5063658;28;20527;-45
2022/12/08 10:50:06;;;;;;;3.10;1.33;;;;;;;;;;5064758;28;20087;-45
2022/12/08 10:52:32;;;;;;;3.63;1.33;;;;;;;;;;5060897;28;20405;-45
2022/12/08 10:54:59;;;;;;;4.22;1.50;;;;;;;;;;5068129;28;20040;-45
2022/12/08 10:57:25;;;;;;;2.28;1.17;;;;;;;;;;5063721;28;20033;-45
2022/12/08 10:59:54;;;;;;;3.13;1.30;;;;;;;;;;5026184;28;20087;-44
2022/12/08 11:02:21;;;;;;;3.30;1.63;;;;;;;;;;5069477;28;20045;-44
2022/12/08 11:04:57;;;;;;;2.58;1.10;;;;;;;;;;5068089;28;20028;-44
2022/12/08 11:07:24;;;;;;;6.18;1.52;;;;;;;;;;5059221;28;20679;-45
2022/12/08 11:09:53;;;;;;;3.30;1.10;;;;;;;;;;5069890;28;20033;-45
2022/12/08 11:12:21;;;;;;;7.78;2.67;;;;;;;;;;5066368;28;20055;-45
2022/12/08 11:14:48;;;;;;;6.93;2.88;;;;;;;;;;5068752;28;20024;-47
2022/12/08 11:17:23;;;;;;;10.88;3.08;;;;;;;;;;5061250;28;20429;-46
2022/12/08 11:20:00;;;;;;;15.70;3.30;;;;;;;;;;5067635;28;20550;-46
2022/12/08 11:22:46;;;;;;;16.73;3.25;;;;;;;;;;5062531;28;20041;-46
2022/12/08 11:25:16;;;;;;;10.43;3.60;;;;;;;;;;5055117;28;20091;-46
2022/12/08 11:27:43;;;;;;;12.93;3.00;;;;;;;;;;5066607;28;20040;-45
2022/12/08 11:30:14;;;;;;;13.32;3.70;;;;;;;;;;5066795;28;20453;-46
2022/12/08 11:32:43;;;;;;;12.27;3.78;;;;;;;;;;5059491;28;20040;-45
2022/12/08 11:35:14;;;;;;;10.40;3.22;;;;;;;;;;5065564;28;20040;-45
2022/12/08 11:37:42;;;;;;;7.90;3.05;;;;;;;;;;5065354;28;20067;-45
2022/12/08 11:40:14;;;;;;;10.68;2.85;;;;;;;;;;5065252;28;20044;-47
2022/12/08 11:42:53;;;;;;;10.63;2.85;;;;;;;;;;5067218;28;20037;-47
2022/12/08 11:45:23;;;;;;;14.75;2.88;;;;;;;;;;5067119;28;20039;-45
2022/12/08 11:47:54;;;;;;;8.52;3.22;;;;;;;;;;5062790;28;20460;-47
2022/12/08 11:50:26;;;;;;;6.03;2.30;;;;;;;;;;5066021;28;20103;-43
2022/12/08 11:52:52;;;;;;;;;;;;;;;;;;5066319;28;20691;-44
2022/12/08 11:55:18;;;;;;;9.07;2.53;;;;;;;;;;5066263;28;19917;-44
2022/12/08 11:57:45;;;;;;;7.93;2.20;;;;;;;;;;5064433;28;20095;-44
2022/12/08 12:00:13;;;;;;;4.57;2.22;;;;;;;;;;5067216;28;20099;-45
2022/12/08 12:02:41;;;;;;;12.38;3.67;;;;;;;;;;5067471;28;20029;-43
2022/12/08 12:05:10;;;;;;;5.68;1.92;;;;;;;;;;5065827;28;20531;-44
2022/12/08 12:07:45;;;;;;;6.20;2.00;;;;;;;;;;5065552;28;20481;-44
2022/12/08 12:10:30;;;;;;;6.45;1.85;;;;;;;;;;5065964;28;20021;-44
2022/12/08 12:13:05;;;;;;;4.90;1.98;;;;;;;;;;5065590;28;20045;-44
2022/12/08 12:15:37;;;;;;;9.55;2.75;;;;;;;;;;5066457;28;20044;-45
2022/12/08 12:18:03;;;;;;;4.75;1.92;;;;;;;;;;5063808;28;20124;-45
2022/12/08 12:20:42;;;;;;;7.45;2.33;;;;;;;;;;5065828;28;20483;-43
2022/12/08 12:23:20;;;;;;;5.72;2.00;;;;;;;;;;5064163;28;20040;-44
2022/12/08 12:26:06;;;;;;;7.43;2.08;;;;;;;;;;5066747;28;20029;-43
2022/12/08 12:28:40;;;;;;;7.03;2.08;;;;;;;;;;5065024;28;20020;-42
2022/12/08 12:31:09;;;;;;;7.00;2.20;;;;;;;;;;5065231;28;20119;-45
2022/12/08 12:33:35;;;;;;;3.70;1.98;;;;;;;;;;5066098;28;20529;-44
2022/12/08 12:36:02;;;;;;;6.97;2.13;;;;;;;;;;5066718;28;20040;-44
2022/12/08 12:41:28;;;;;;;4.95;1.58;;;;;;;;;;5065438;28;20071;-43
2022/12/08 12:44:26;;;;;;;4.95;1.98;;;;;;;;;;5067537;28;20029;-44
2022/12/08 12:46:53;;;;;;;7.10;1.77;;;;;;;;;;5022271;28;20035;-44
2022/12/08 12:49:55;;;;;;;7.30;1.90;;;;;;;;;;5067985;28;20012;-44
2022/12/08 12:52:32;;;;;;;7.38;2.15;;;;;;;;;;5006273;28;20044;-44
2022/12/08 12:54:58;;;;;;;4.35;1.95;;;;;;;;;;5062548;28;20087;-43
2022/12/08 12:57:33;;;;;;;5.50;1.85;;;;;;;;;;5067147;28;20044;-43
2022/12/08 12:59:59;;;;;;;5.40;1.85;;;;;;;;;;5069207;28;20029;-43
2022/12/08 13:02:28;;;;;;;6.57;2.60;;;;;;;;;;5067475;28;20063;-43
2022/12/08 13:05:00;;;;;;;6.05;1.90;;;;;;;;;;5069655;28;20038;-44
2022/12/08 13:07:31;;;;;;;5.75;1.70;;;;;;;;;;5067521;28;20032;-43
2022/12/08 13:10:17;;;;;;;5.50;2.20;;;;;;;;;;5070272;28;20103;-44
2022/12/08 13:13:00;;;;;;;4.90;2.13;;;;;;;;;;5068707;28;20072;-43
2022/12/08 13:15:33;;;;;;;6.60;2.17;;;;;;;;;;5066267;28;20102;-43
2022/12/08 13:17:59;;;;;;;6.25;2.22;;;;;;;;;;5066872;28;20102;-43
2022/12/08 13:20:26;;;;;;;5.63;2.55;;;;;;;;;;5067093;28;20091;-43
2022/12/08 13:22:58;;;;;;;7.07;1.73;;;;;;;;;;5067586;28;20152;-43
2022/12/08 13:25:53;;;;;;;5.60;1.90;;;;;;;;;;5064794;28;20488;-44
2022/12/08 13:28:24;;;;;;;6.65;2.08;;;;;;;;;;5046407;28;20392;-44
2022/12/08 13:31:00;;;;;;;6.20;2.13;;;;;;;;;;5072975;28;20024;-43
2022/12/08 13:33:39;;;;;;;5.00;2.20;;;;;;;;;;5068614;28;20033;-42
2022/12/08 13:36:11;;;;;;;5.82;2.38;;;;;;;;;;5067914;28;20051;-47
2022/12/08 13:38:38;;;;;;;4.30;1.67;;;;;;;;;;5066069;28;20106;-45
2022/12/08 13:41:08;;;;;;;6.47;2.15;;;;;;;;;;5071868;28;20154;-46
2022/12/08 13:43:34;;;;;;;3.90;1.73;;;;;;;;;;5064584;28;20695;-44
2022/12/08 13:46:02;;;;;;;5.38;1.85;;;;;;;;;;5068924;28;20036;-44
2022/12/08 13:48:34;;;;;;;5.70;1.90;;;;;;;;;;5065155;28;20072;-43
2022/12/08 13:51:18;;;;;;;4.93;2.03;;;;;;;;;;5067185;28;20095;-44
2022/12/08 13:53:50;;;;;;;4.60;1.85;;;;;;;;;;5064807;28;20501;-44
2022/12/08 13:56:17;;;;;;;5.40;2.25;;;;;;;;;;5067413;28;20036;-43
2022/12/08 13:58:43;;;;;;;4.47;1.90;;;;;;;;;;5067245;28;20115;-44
2022/12/08 14:01:20;;;;;;;5.72;3.22;;;;;;;;;;5067051;28;20120;-45
2022/12/08 14:03:46;;;;;;;4.10;2.03;;;;;;;;;;5066764;28;20029;-44
2022/12/08 14:06:14;;;;;;;4.82;2.00;;;;;;;;;;5068417;28;20489;-44
2022/12/08 14:08:42;;;;;;;4.32;1.83;;;;;;;;;;5065790;28;20047;-43
2022/12/08 14:11:11;;;;;;;4.60;2.35;;;;;;;;;;5068188;28;20504;-45
2022/12/08 14:13:37;;;;;;;4.57;1.83;;;;;;;;;;5065406;28;20477;-44
2022/12/08 14:16:03;;;;;;;5.88;2.40;;;;;;;;;;5067842;28;20051;-45
2022/12/08 14:18:30;;;;;;;4.13;2.00;;;;;;;;;;5065151;28;20029;-43
2022/12/08 14:21:14;;;;;;;4.45;1.90;;;;;;;;;;5069615;28;20107;-43
2022/12/08 14:23:43;;;;;;;5.07;2.55;;;;;;;;;;5065929;28;20485;-45
2022/12/08 14:26:10;;;;;;;5.20;1.90;;;;;;;;;;5067886;28;20487;-45
2022/12/08 14:28:36;;;;;;;4.85;1.75;;;;;;;;;;5062533;28;20052;-43
2022/12/08 14:31:03;;;;;;;5.95;1.92;;;;;;;;;;5063688;28;20104;-46
2022/12/08 14:33:30;;;;;;;3.40;2.13;;;;;;;;;;5067392;28;20110;-43
2022/12/08 14:35:56;;;;;;;4.90;1.85;;;;;;;;;;5081528;28;20051;-44
2022/12/08 14:38:24;;;;;;;3.83;1.80;;;;;;;;;;5063075;28;20742;-43
2022/12/08 14:41:04;;;;;;;6.85;2.00;;;;;;;;;;5069150;28;20078;-43
2022/12/08 14:43:30;;;;;;;3.20;1.60;;;;;;;;;;5065150;28;20033;-44
2022/12/08 14:46:01;;;;;;;3.65;1.80;;;;;;;;;;5062113;28;20024;-44
2022/12/08 14:48:27;;;;;;;5.10;1.85;;;;;;;;;;5060347;28;20051;-45
2022/12/08 14:50:53;;;;;;;3.05;1.40;;;;;;;;;;5069535;28;20029;-43
2022/12/08 14:53:19;;;;;;;3.95;1.88;;;;;;;;;;5064803;28;20033;-43
2022/12/08 14:55:46;;;;;;;2.33;1.30;;;;;;;;;;5069956;28;20486;-43
2022/12/08 14:58:21;;;;;;;4.05;2.30;;;;;;;;;;5065515;28;20798;-45